createdAt,value
2019-03-27T00:01:45.584Z,7.00
2019-03-27T00:03:53.931Z,7.00
2019-03-27T00:06:02.205Z,9.30
2019-03-27T00:08:10.536Z,9.93
2019-03-27T00:10:18.884Z,11.40
2019-03-27T00:12:27.116Z,15.30
2019-03-27T00:14:35.382Z,11.03
2019-03-27T00:16:43.746Z,5.87
2019-03-27T00:18:51.981Z,6.73
2019-03-27T00:21:00.215Z,6.03
2019-03-27T00:23:08.468Z,4.93
2019-03-27T00:25:16.756Z,5.43
2019-03-27T00:27:25.113Z,4.60
2019-03-27T00:29:33.298Z,5.70
2019-03-27T00:31:41.542Z,5.27
2019-03-27T00:33:49.779Z,5.57
2019-03-27T00:35:57.990Z,4.37
2019-03-27T00:38:06.218Z,4.57
2019-03-27T00:40:14.737Z,4.50
2019-03-27T00:42:22.932Z,5.30
2019-03-27T00:44:31.171Z,4.70
2019-03-27T00:46:39.449Z,4.17
2019-03-27T00:48:47.652Z,4.40
2019-03-27T00:50:55.893Z,5.13
2019-03-27T00:53:04.106Z,4.43
2019-03-27T00:55:14.592Z,4.53
2019-03-27T00:57:22.847Z,5.57
2019-03-27T00:59:31.054Z,4.23
2019-03-27T01:01:39.307Z,4.60
2019-03-27T01:03:47.648Z,4.27
2019-03-27T01:05:55.914Z,3.90
2019-03-27T01:08:04.216Z,4.60
2019-03-27T01:10:12.724Z,4.13
2019-03-27T01:12:20.925Z,4.80
2019-03-27T01:14:29.167Z,4.20
2019-03-27T01:16:37.392Z,4.80
2019-03-27T01:18:45.705Z,4.83
2019-03-27T01:20:53.961Z,5.43
2019-03-27T01:23:03.086Z,5.37
2019-03-27T01:25:11.511Z,5.03
2019-03-27T01:27:19.723Z,6.03
2019-03-27T01:29:27.956Z,4.73
2019-03-27T01:31:36.258Z,4.13
2019-03-27T01:33:44.559Z,4.17
2019-03-27T01:35:52.766Z,6.97
2019-03-27T01:38:00.958Z,4.93
2019-03-27T01:40:09.566Z,4.57
2019-03-27T01:42:17.800Z,4.40
2019-03-27T01:44:26.005Z,4.40
2019-03-27T01:46:34.197Z,5.27
2019-03-27T01:48:42.430Z,4.87
2019-03-27T01:50:50.572Z,4.77
2019-03-27T01:52:58.765Z,5.17
2019-03-27T01:55:07.155Z,5.37
2019-03-27T01:57:15.369Z,6.33
2019-03-27T01:59:23.557Z,6.63
2019-03-27T02:01:31.745Z,6.03
2019-03-27T02:03:39.908Z,6.33
2019-03-27T02:05:48.105Z,6.60
2019-03-27T02:07:56.293Z,7.80
2019-03-27T02:10:05.215Z,9.30
2019-03-27T02:12:13.423Z,8.43
2019-03-27T02:16:47.657Z,7.60
2019-03-27T02:18:55.868Z,8.93
2019-03-27T02:21:04.190Z,7.60
2019-03-27T02:23:12.394Z,7.03
2019-03-27T02:25:20.666Z,7.73
2019-03-27T02:27:28.820Z,6.43
2019-03-27T02:29:37.028Z,6.70
2019-03-27T02:31:45.295Z,6.07
2019-03-27T02:33:53.498Z,6.63
2019-03-27T02:36:01.690Z,6.63
2019-03-27T02:38:09.995Z,7.10
2019-03-27T02:40:18.244Z,8.27
2019-03-27T02:42:26.449Z,6.77
2019-03-27T02:44:34.618Z,6.47
2019-03-27T02:46:42.811Z,6.63
2019-03-27T02:48:51.084Z,6.97
2019-03-27T02:50:59.253Z,6.73
2019-03-27T02:53:07.488Z,5.80
2019-03-27T02:55:15.727Z,6.53
2019-03-27T02:57:24.466Z,7.30
2019-03-27T02:59:32.925Z,6.30
2019-03-27T03:01:41.188Z,5.23
2019-03-27T03:03:49.404Z,5.97
2019-03-27T03:05:57.799Z,7.97
2019-03-27T03:08:06.064Z,6.80
2019-03-27T03:10:15.618Z,5.73
2019-03-27T03:12:23.850Z,5.90
2019-03-27T03:14:32.053Z,7.50
2019-03-27T03:16:42.556Z,5.90
2019-03-27T03:18:50.295Z,7.23
2019-03-27T03:20:58.479Z,5.93
2019-03-27T03:23:06.664Z,6.60
2019-03-27T03:25:15.057Z,6.70
2019-03-27T03:27:23.217Z,7.60
2019-03-27T03:29:31.398Z,7.70
2019-03-27T03:31:39.634Z,7.27
2019-03-27T03:33:47.861Z,8.97
2019-03-27T03:35:56.055Z,7.80
2019-03-27T03:38:04.266Z,7.17
2019-03-27T03:40:14.090Z,8.27
2019-03-27T03:42:22.490Z,7.70
2019-03-27T03:44:30.791Z,7.60
2019-03-27T03:46:39.020Z,7.43
2019-03-27T03:48:47.281Z,7.60
2019-03-27T03:51:00.593Z,6.50
2019-03-27T03:53:11.701Z,8.33
2019-03-27T03:55:20.194Z,22.70
2019-03-27T03:57:31.429Z,15.23
2019-03-27T03:59:42.850Z,19.17
2019-03-27T04:01:54.487Z,7.67
2019-03-27T04:04:05.704Z,10.13
2019-03-27T04:06:13.927Z,7.23
2019-03-27T04:08:22.165Z,8.13
2019-03-27T04:10:30.506Z,9.50
2019-03-27T04:12:38.796Z,8.10
2019-03-27T04:14:46.975Z,7.53
2019-03-27T04:16:55.227Z,8.53
2019-03-27T04:19:03.436Z,8.40
2019-03-27T04:21:11.626Z,8.83
2019-03-27T04:23:19.905Z,8.83
2019-03-27T04:25:28.097Z,9.87
2019-03-27T04:27:36.315Z,11.77
2019-03-27T04:29:44.524Z,10.60
2019-03-27T04:31:52.977Z,10.50
2019-03-27T04:34:01.181Z,10.60
2019-03-27T04:36:09.350Z,17.97
2019-03-27T04:38:17.694Z,14.83
2019-03-27T04:40:26.007Z,15.33
2019-03-27T04:42:34.258Z,10.30
2019-03-27T04:44:42.453Z,8.83
2019-03-27T04:46:50.653Z,12.23
2019-03-27T04:48:58.964Z,10.30
2019-03-27T04:51:07.380Z,10.53
2019-03-27T04:53:15.597Z,10.80
2019-03-27T04:55:23.804Z,10.43
2019-03-27T04:57:32.081Z,10.47
2019-03-27T04:59:40.303Z,11.03
2019-03-27T05:01:48.508Z,11.47
2019-03-27T05:03:57.020Z,14.43
2019-03-27T05:06:05.376Z,18.70
2019-03-27T05:08:13.603Z,10.27
2019-03-27T05:10:21.819Z,10.10
2019-03-27T05:12:30.036Z,10.53
2019-03-27T05:14:38.270Z,10.23
2019-03-27T05:16:46.618Z,11.70
2019-03-27T05:18:54.928Z,14.60
2019-03-27T05:21:03.196Z,13.83
2019-03-27T05:23:11.540Z,10.97
2019-03-27T05:25:19.714Z,10.63
2019-03-27T05:27:27.927Z,13.67
2019-03-27T05:29:36.160Z,17.10
2019-03-27T05:31:44.431Z,18.60
2019-03-27T05:33:52.680Z,12.70
2019-03-27T05:36:01.242Z,12.80
2019-03-27T05:38:09.636Z,11.27
2019-03-27T05:40:17.880Z,9.57
2019-03-27T05:42:26.152Z,12.00
2019-03-27T05:44:34.417Z,9.93
2019-03-27T05:46:42.802Z,11.10
2019-03-27T05:48:51.066Z,17.13
2019-03-27T05:50:59.346Z,11.70
2019-03-27T05:53:07.734Z,12.27
2019-03-27T05:55:16.035Z,14.90
2019-03-27T05:57:24.306Z,13.70
2019-03-27T05:59:32.691Z,15.00
2019-03-27T06:01:40.963Z,25.73
2019-03-27T06:03:49.340Z,39.87
2019-03-27T06:05:57.665Z,32.33
2019-03-27T06:08:06.376Z,25.90
2019-03-27T06:10:16.450Z,21.30
2019-03-27T06:12:25.029Z,20.00
2019-03-27T06:14:33.376Z,19.70
2019-03-27T06:16:41.668Z,13.60
2019-03-27T06:18:50.017Z,18.03
2019-03-27T06:20:58.333Z,18.27
2019-03-27T06:23:06.734Z,14.33
2019-03-27T06:25:15.280Z,14.73
2019-03-27T06:27:23.666Z,13.50
2019-03-27T06:29:32.031Z,15.63
2019-03-27T06:31:40.476Z,10.17
2019-03-27T06:33:48.692Z,14.00
2019-03-27T06:35:57.013Z,8.83
2019-03-27T06:38:05.309Z,9.13
2019-03-27T06:40:13.722Z,14.10
2019-03-27T06:42:22.051Z,18.63
2019-03-27T06:44:31.443Z,17.27
2019-03-27T06:46:39.729Z,11.03
2019-03-27T06:48:47.990Z,9.57
2019-03-27T06:50:56.253Z,7.83
2019-03-27T06:53:04.635Z,7.00
2019-03-27T06:55:13.001Z,8.30
2019-03-27T06:57:21.225Z,6.87
2019-03-27T06:59:29.493Z,6.63
2019-03-27T07:01:37.741Z,13.30
2019-03-27T07:03:46.047Z,7.70
2019-03-27T07:05:54.308Z,21.17
2019-03-27T07:08:02.736Z,12.97
2019-03-27T07:10:11.579Z,10.47
2019-03-27T07:12:21.447Z,7.17
2019-03-27T07:14:29.878Z,6.10
2019-03-27T07:16:38.167Z,7.73
2019-03-27T07:18:46.480Z,7.20
2019-03-27T07:20:54.891Z,7.97
2019-03-27T07:23:03.427Z,7.33
2019-03-27T07:25:12.489Z,8.47
2019-03-27T07:27:20.705Z,17.83
2019-03-27T07:29:28.915Z,7.53
2019-03-27T07:31:37.307Z,15.93
2019-03-27T07:33:45.548Z,10.17
2019-03-27T07:35:53.955Z,8.83
2019-03-27T07:38:02.255Z,9.27
2019-03-27T07:40:11.373Z,8.03
2019-03-27T07:42:19.579Z,5.50
2019-03-27T07:44:27.918Z,5.27
2019-03-27T07:46:36.220Z,7.20
2019-03-27T07:48:53.841Z,7.30
2019-03-27T07:50:54.564Z,6.30
2019-03-27T07:53:02.958Z,4.77
2019-03-27T07:55:19.342Z,8.80
2019-03-27T07:57:21.767Z,7.70
2019-03-27T07:59:30.082Z,8.77
2019-03-27T08:01:38.384Z,7.47
2019-03-27T08:03:46.665Z,7.73
2019-03-27T08:05:55.121Z,16.50
2019-03-27T08:08:03.554Z,10.77
2019-03-27T08:10:12.123Z,5.33
2019-03-27T08:12:20.373Z,6.63
2019-03-27T08:14:28.672Z,6.80
2019-03-27T08:16:36.956Z,5.97
2019-03-27T08:18:45.340Z,7.87
2019-03-27T08:20:53.566Z,7.10
2019-03-27T08:23:01.867Z,5.10
2019-03-27T08:25:11.838Z,5.03
2019-03-27T08:27:20.138Z,6.97
2019-03-27T08:29:28.455Z,8.93
2019-03-27T08:31:36.722Z,6.53
2019-03-27T08:33:44.940Z,5.00
2019-03-27T08:35:53.162Z,5.23
2019-03-27T08:38:01.444Z,4.67
2019-03-27T08:40:11.116Z,4.70
2019-03-27T08:42:19.437Z,5.00
2019-03-27T08:44:27.667Z,4.23
2019-03-27T08:46:36.016Z,5.40
2019-03-27T08:48:44.262Z,4.10
2019-03-27T08:50:52.478Z,4.50
2019-03-27T08:53:00.872Z,6.97
2019-03-27T08:55:13.625Z,4.60
2019-03-27T08:57:20.454Z,5.17
2019-03-27T08:59:28.623Z,6.43
2019-03-27T09:01:36.883Z,4.70
2019-03-27T09:03:45.299Z,3.90
2019-03-27T09:05:53.929Z,5.33
2019-03-27T09:08:02.251Z,3.97
2019-03-27T09:10:11.648Z,4.00
2019-03-27T09:12:19.971Z,4.50
2019-03-27T09:14:28.333Z,4.87
2019-03-27T09:16:37.082Z,6.63
2019-03-27T09:18:45.478Z,9.27
2019-03-27T09:20:53.855Z,4.83
2019-03-27T09:23:02.139Z,11.20
2019-03-27T09:25:11.090Z,9.53
2019-03-27T09:27:19.299Z,9.50
2019-03-27T09:29:27.595Z,4.87
2019-03-27T09:31:44.548Z,3.93
2019-03-27T09:33:45.821Z,6.90
2019-03-27T09:35:54.207Z,4.67
2019-03-27T09:38:02.578Z,5.83
2019-03-27T09:40:12.381Z,11.73
2019-03-27T09:42:20.651Z,17.13
2019-03-27T09:44:28.916Z,7.90
2019-03-27T09:46:37.240Z,7.90
2019-03-27T09:48:45.473Z,6.40
2019-03-27T09:50:53.875Z,8.20
2019-03-27T09:53:02.231Z,15.13
2019-03-27T09:55:10.729Z,14.23
2019-03-27T09:57:18.975Z,7.90
2019-03-27T09:59:27.288Z,4.03
2019-03-27T10:01:35.723Z,4.87
2019-03-27T10:03:44.372Z,5.20
2019-03-27T10:05:52.694Z,4.50
2019-03-27T10:08:01.063Z,4.97
2019-03-27T10:10:10.107Z,4.23
2019-03-27T10:12:18.603Z,8.90
2019-03-27T10:14:26.903Z,6.40
2019-03-27T10:16:35.261Z,4.27
2019-03-27T10:18:43.509Z,4.00
2019-03-27T10:20:51.816Z,4.63
2019-03-27T10:23:00.072Z,4.87
2019-03-27T10:25:09.929Z,4.60
2019-03-27T10:27:18.499Z,3.50
2019-03-27T10:29:26.924Z,3.13
2019-03-27T10:31:35.196Z,2.60
2019-03-27T10:33:43.503Z,2.60
2019-03-27T10:35:52.160Z,2.50
2019-03-27T10:38:00.586Z,1.70
2019-03-27T10:40:10.196Z,1.57
2019-03-27T10:42:18.547Z,2.00
2019-03-27T10:44:27.048Z,4.43
2019-03-27T10:46:35.441Z,2.13
2019-03-27T10:48:52.385Z,2.50
2019-03-27T10:50:53.748Z,2.33
2019-03-27T10:53:02.032Z,1.87
2019-03-27T10:55:10.829Z,1.90
2019-03-27T10:57:19.268Z,1.80
2019-03-27T10:59:27.581Z,2.57
2019-03-27T11:01:36.145Z,2.03
2019-03-27T11:03:44.381Z,2.20
2019-03-27T11:05:52.949Z,2.00
2019-03-27T11:08:01.615Z,2.00
2019-03-27T11:10:10.557Z,1.97
2019-03-27T11:12:19.190Z,1.97
2019-03-27T11:14:37.826Z,2.20
2019-03-27T11:16:38.094Z,2.10
2019-03-27T11:18:46.359Z,2.20
2019-03-27T11:20:54.573Z,2.03
2019-03-27T11:23:02.903Z,1.80
2019-03-27T11:25:12.157Z,2.00
2019-03-27T11:27:20.353Z,2.53
2019-03-27T11:29:29.048Z,1.87
2019-03-27T11:31:37.273Z,3.67
2019-03-27T11:33:45.751Z,3.33
2019-03-27T11:35:59.452Z,4.10
2019-03-27T11:38:07.705Z,3.43
2019-03-27T11:40:16.004Z,2.00
2019-03-27T11:42:24.271Z,1.83
2019-03-27T11:44:32.670Z,1.70
2019-03-27T11:46:40.899Z,1.90
2019-03-27T11:48:49.123Z,7.23
2019-03-27T11:50:58.244Z,2.57
2019-03-27T11:53:06.935Z,2.00
2019-03-27T11:55:15.716Z,3.67
2019-03-27T11:57:23.931Z,2.10
2019-03-27T11:59:38.454Z,2.83
2019-03-27T12:01:47.047Z,2.30
2019-03-27T12:03:55.520Z,2.77
2019-03-27T12:06:03.815Z,1.60
2019-03-27T12:08:12.228Z,1.77
2019-03-27T12:10:20.584Z,2.30
2019-03-27T12:12:28.934Z,2.00
2019-03-27T12:14:37.148Z,2.60
2019-03-27T12:16:45.378Z,2.83
2019-03-27T12:18:53.616Z,1.90
2019-03-27T12:21:02.390Z,1.70
2019-03-27T12:23:10.738Z,2.10
2019-03-27T12:25:19.050Z,2.07
2019-03-27T12:27:27.425Z,2.30
2019-03-27T12:29:35.710Z,2.40
2019-03-27T12:31:43.942Z,2.87
2019-03-27T12:33:52.295Z,2.60
2019-03-27T12:36:00.665Z,2.30
2019-03-27T12:38:10.011Z,4.00
2019-03-27T12:40:18.299Z,5.20
2019-03-27T12:42:26.629Z,3.17
2019-03-27T12:44:35.283Z,2.70
2019-03-27T12:46:44.263Z,2.00
2019-03-27T12:48:52.874Z,2.80
2019-03-27T12:51:12.113Z,1.80
2019-03-27T12:53:11.436Z,2.30
2019-03-27T12:55:20.296Z,2.97
2019-03-27T12:57:28.661Z,2.57
2019-03-27T12:59:37.145Z,2.00
2019-03-27T13:01:45.557Z,1.80
2019-03-27T13:03:54.053Z,2.40
2019-03-27T13:06:02.366Z,3.07
2019-03-27T13:08:10.752Z,2.30
2019-03-27T13:10:19.088Z,2.20
2019-03-27T13:12:27.450Z,2.13
2019-03-27T13:14:36.004Z,2.07
2019-03-27T13:16:44.761Z,2.17
2019-03-27T13:18:53.078Z,2.07
2019-03-27T13:21:01.495Z,4.30
2019-03-27T13:23:09.740Z,2.10
2019-03-27T13:25:18.260Z,2.03
2019-03-27T13:27:26.810Z,1.97
2019-03-27T13:29:35.150Z,2.33
2019-03-27T13:31:43.810Z,7.80
2019-03-27T13:33:52.278Z,10.37
2019-03-27T13:36:00.711Z,8.57
2019-03-27T13:38:09.072Z,3.40
2019-03-27T13:40:18.492Z,3.00
2019-03-27T13:42:27.373Z,3.30
2019-03-27T13:44:37.209Z,5.40
2019-03-27T13:46:45.847Z,3.37
2019-03-27T13:48:54.212Z,3.00
2019-03-27T13:51:02.650Z,3.90
2019-03-27T13:53:11.262Z,2.57
2019-03-27T13:55:19.785Z,2.27
2019-03-27T13:57:28.380Z,3.57
2019-03-27T13:59:36.936Z,3.80
2019-03-27T14:01:45.419Z,2.60
2019-03-27T14:03:53.839Z,2.83
2019-03-27T14:06:02.561Z,2.60
2019-03-27T14:08:11.232Z,4.93
2019-03-27T14:10:19.756Z,2.90
2019-03-27T14:12:27.956Z,4.03
2019-03-27T14:14:49.359Z,5.70
2019-03-27T14:16:46.420Z,5.23
2019-03-27T14:18:54.777Z,2.57
2019-03-27T14:21:03.157Z,2.77
2019-03-27T14:23:11.496Z,6.00
2019-03-27T14:25:22.259Z,5.60
2019-03-27T14:27:30.653Z,5.00
2019-03-27T14:29:38.931Z,3.20
2019-03-27T14:31:47.369Z,19.60
2019-03-27T14:33:55.668Z,3.17
2019-03-27T14:36:04.084Z,2.90
2019-03-27T14:38:12.385Z,2.80
2019-03-27T14:40:20.625Z,6.13
2019-03-27T14:42:29.808Z,7.43
2019-03-27T14:44:38.079Z,3.67
2019-03-27T14:46:46.319Z,3.37
2019-03-27T14:48:54.751Z,3.40
2019-03-27T14:51:03.130Z,4.53
2019-03-27T14:53:11.471Z,3.70
2019-03-27T14:55:19.702Z,3.40
2019-03-27T14:57:27.955Z,2.90
2019-03-27T14:59:36.447Z,4.53
2019-03-27T15:01:44.790Z,3.80
2019-03-27T15:03:55.748Z,3.60
2019-03-27T15:06:10.030Z,4.37
2019-03-27T15:08:23.842Z,4.20
2019-03-27T15:10:40.209Z,4.33
2019-03-27T15:12:51.379Z,4.40
2019-03-27T15:15:07.752Z,4.53
2019-03-27T15:17:20.102Z,4.60
2019-03-27T15:19:30.334Z,4.50
2019-03-27T15:21:38.654Z,5.93
2019-03-27T15:23:46.967Z,4.30
2019-03-27T15:25:55.204Z,3.77
2019-03-27T15:28:03.425Z,4.10
2019-03-27T15:30:14.817Z,3.87
2019-03-27T15:32:24.020Z,4.87
2019-03-27T15:34:32.291Z,4.30
2019-03-27T15:36:40.556Z,4.77
2019-03-27T15:38:48.919Z,5.23
2019-03-27T15:40:57.251Z,6.10
2019-03-27T15:43:05.701Z,5.90
2019-03-27T15:45:14.609Z,4.90
2019-03-27T15:47:22.972Z,9.60
2019-03-27T15:49:31.386Z,6.37
2019-03-27T15:51:39.658Z,5.70
2019-03-27T15:53:47.962Z,7.93
2019-03-27T15:55:56.395Z,10.87
2019-03-27T15:58:04.954Z,16.97
2019-03-27T16:00:13.756Z,8.03
2019-03-27T16:02:22.427Z,6.80
2019-03-27T16:04:30.937Z,9.20
2019-03-27T16:06:39.226Z,6.93
2019-03-27T16:08:47.601Z,7.37
2019-03-27T16:10:55.953Z,7.47
2019-03-27T16:13:04.477Z,7.63
2019-03-27T16:15:13.435Z,11.80
2019-03-27T16:17:21.704Z,14.87
2019-03-27T16:19:29.911Z,10.60
2019-03-27T16:21:38.315Z,8.03
2019-03-27T16:23:46.562Z,9.70
2019-03-27T16:25:54.800Z,8.57
2019-03-27T16:28:03.028Z,8.33
2019-03-27T16:30:12.078Z,7.40
2019-03-27T16:32:20.355Z,5.87
2019-03-27T16:34:28.657Z,5.47
2019-03-27T16:36:37.071Z,5.50
2019-03-27T16:38:45.325Z,7.60
2019-03-27T16:40:53.629Z,8.70
2019-03-27T16:43:01.880Z,7.53
2019-03-27T16:45:11.141Z,8.83
2019-03-27T16:47:19.495Z,7.40
2019-03-27T16:49:27.803Z,9.13
2019-03-27T16:51:35.999Z,8.53
2019-03-27T16:53:44.401Z,10.17
2019-03-27T16:55:52.737Z,8.13
2019-03-27T16:58:01.034Z,10.07
2019-03-27T17:00:10.005Z,10.13
2019-03-27T17:02:18.258Z,7.90
2019-03-27T17:04:26.494Z,7.83
2019-03-27T17:06:34.833Z,8.80
2019-03-27T17:08:43.126Z,9.10
2019-03-27T17:10:51.772Z,8.10
2019-03-27T17:13:00.033Z,8.07
2019-03-27T17:15:09.417Z,9.73
2019-03-27T17:17:17.787Z,17.30
2019-03-27T17:19:26.092Z,21.40
2019-03-27T17:21:34.554Z,16.80
2019-03-27T17:23:43.487Z,29.40
2019-03-27T17:26:11.786Z,29.53
2019-03-27T17:28:03.274Z,22.00
2019-03-27T17:30:12.976Z,31.53
2019-03-27T17:32:21.453Z,32.23
2019-03-27T17:34:29.738Z,38.53
2019-03-27T17:36:38.238Z,21.50
2019-03-27T17:38:46.686Z,14.00
2019-03-27T17:40:55.218Z,16.00
2019-03-27T17:43:03.890Z,11.47
2019-03-27T17:45:12.347Z,11.57
2019-03-27T17:47:20.736Z,13.50
2019-03-27T17:49:30.230Z,15.40
2019-03-27T17:51:39.182Z,24.37
2019-03-27T17:53:47.815Z,21.80
2019-03-27T17:55:56.364Z,24.17
2019-03-27T17:58:04.906Z,31.33
2019-03-27T18:00:17.133Z,20.23
2019-03-27T18:02:26.111Z,17.73
2019-03-27T18:04:34.799Z,18.47
2019-03-27T18:06:43.899Z,18.17
2019-03-27T18:08:52.708Z,21.93
2019-03-27T18:11:01.311Z,20.73
2019-03-27T18:13:10.171Z,17.50
2019-03-27T18:15:19.153Z,21.50
2019-03-27T18:17:28.251Z,18.80
2019-03-27T18:19:37.268Z,19.67
2019-03-27T18:21:45.667Z,17.07
2019-03-27T18:23:54.078Z,17.53
2019-03-27T18:26:03.488Z,14.17
2019-03-27T18:28:12.844Z,15.87
2019-03-27T18:30:22.361Z,18.00
2019-03-27T18:32:30.836Z,17.90
2019-03-27T18:34:39.537Z,19.47
2019-03-27T18:36:47.826Z,17.67
2019-03-27T18:38:56.214Z,20.97
2019-03-27T18:41:04.830Z,18.07
2019-03-27T18:43:13.299Z,14.43
2019-03-27T18:45:21.805Z,21.70
2019-03-27T18:47:30.238Z,24.87
2019-03-27T18:49:38.715Z,21.87
2019-03-27T18:51:47.344Z,18.50
2019-03-27T18:53:59.807Z,16.97
2019-03-27T18:56:06.624Z,15.47
2019-03-27T18:58:15.449Z,13.67
2019-03-27T19:00:24.868Z,13.70
2019-03-27T19:02:33.595Z,14.23
2019-03-27T19:04:42.312Z,13.30
2019-03-27T19:06:51.887Z,14.57
2019-03-27T19:09:02.271Z,16.20
2019-03-27T19:11:11.988Z,14.57
2019-03-27T19:13:21.266Z,17.10
2019-03-27T19:15:30.617Z,20.73
2019-03-27T19:17:40.045Z,15.63
2019-03-27T19:19:49.146Z,13.00
2019-03-27T19:21:58.944Z,13.53
2019-03-27T19:24:16.259Z,20.17
2019-03-27T19:26:19.340Z,17.63
2019-03-27T19:28:29.295Z,14.70
2019-03-27T19:30:38.045Z,13.63
2019-03-27T19:32:47.125Z,13.77
2019-03-27T19:34:56.120Z,16.07
2019-03-27T19:37:04.761Z,13.10
2019-03-27T19:39:13.713Z,13.47
2019-03-27T19:41:22.257Z,15.17
2019-03-27T19:43:30.974Z,15.67
2019-03-27T19:45:41.905Z,13.60
2019-03-27T19:47:51.020Z,12.57
2019-03-27T19:49:59.985Z,12.67
2019-03-27T19:52:08.742Z,12.97
2019-03-27T19:54:26.907Z,12.27
2019-03-27T19:56:28.225Z,12.20
2019-03-27T19:58:36.916Z,12.57
2019-03-27T20:00:45.638Z,12.60
2019-03-27T20:02:54.891Z,11.90
2019-03-27T20:05:03.410Z,12.27
2019-03-27T20:07:11.945Z,12.57
2019-03-27T20:09:20.740Z,10.87
2019-03-27T20:11:29.361Z,11.40
2019-03-27T20:13:37.820Z,11.10
2019-03-27T20:15:46.463Z,13.13
2019-03-27T20:17:54.798Z,12.33
2019-03-27T20:20:03.140Z,13.03
2019-03-27T20:22:11.445Z,13.73
2019-03-27T20:24:19.938Z,13.17
2019-03-27T20:26:28.374Z,12.97
2019-03-27T20:28:36.688Z,13.00
2019-03-27T20:30:45.187Z,12.60
2019-03-27T20:32:53.510Z,12.93
2019-03-27T20:35:01.887Z,12.90
2019-03-27T20:37:10.189Z,12.37
2019-03-27T20:39:18.468Z,12.87
2019-03-27T20:41:26.783Z,13.53
2019-03-27T20:43:35.088Z,13.33
2019-03-27T20:45:43.934Z,14.30
2019-03-27T20:47:52.306Z,13.60
2019-03-27T20:50:00.723Z,12.63
2019-03-27T20:52:08.964Z,12.77
2019-03-27T20:54:17.235Z,13.10
2019-03-27T20:56:25.553Z,14.07
2019-03-27T20:58:33.847Z,13.10
2019-03-27T21:00:42.114Z,13.87
2019-03-27T21:02:50.501Z,16.10
2019-03-27T21:04:58.882Z,19.03
2019-03-27T21:07:07.338Z,16.90
2019-03-27T21:09:15.627Z,15.30
2019-03-27T21:11:24.122Z,15.63
2019-03-27T21:13:32.436Z,15.03
2019-03-27T21:15:40.727Z,15.53
2019-03-27T21:17:49.019Z,14.83
2019-03-27T21:19:57.530Z,15.37
2019-03-27T21:22:06.156Z,14.50
2019-03-27T21:24:14.598Z,14.40
2019-03-27T21:26:22.861Z,14.13
2019-03-27T21:28:31.118Z,15.23
2019-03-27T21:30:39.899Z,16.10
2019-03-27T21:32:48.123Z,14.13
2019-03-27T21:34:56.441Z,15.40
2019-03-27T21:37:04.710Z,13.80
2019-03-27T21:39:13.041Z,14.10
2019-03-27T21:41:21.379Z,14.90
2019-03-27T21:43:29.809Z,14.83
2019-03-27T21:45:38.213Z,14.17
2019-03-27T21:47:46.583Z,15.30
2019-03-27T21:49:54.919Z,15.47
2019-03-27T21:52:03.264Z,15.10
2019-03-27T21:54:11.520Z,14.60
2019-03-27T21:56:19.879Z,13.70
2019-03-27T21:58:28.206Z,15.33
2019-03-27T22:00:43.523Z,13.63
2019-03-27T22:02:51.798Z,13.27
2019-03-27T22:05:00.255Z,14.13
2019-03-27T22:07:08.866Z,14.20
2019-03-27T22:09:17.399Z,14.27
2019-03-27T22:11:25.714Z,15.50
2019-03-27T22:13:34.044Z,13.97
2019-03-27T22:15:42.370Z,15.97
2019-03-27T22:17:50.634Z,14.70
2019-03-27T22:19:58.998Z,15.20
2019-03-27T22:22:07.475Z,14.97
2019-03-27T22:24:15.757Z,14.67
2019-03-27T22:26:24.074Z,15.43
2019-03-27T22:28:32.282Z,14.40
2019-03-27T22:30:40.587Z,14.90
2019-03-27T22:32:48.981Z,14.57
2019-03-27T22:34:57.216Z,14.17
2019-03-27T22:37:05.497Z,14.33
2019-03-27T22:39:13.831Z,14.93
2019-03-27T22:41:22.190Z,14.83
2019-03-27T22:43:31.357Z,14.40
2019-03-27T22:45:39.773Z,14.83
2019-03-27T22:47:48.112Z,17.50
2019-03-27T22:49:56.448Z,23.50
2019-03-27T22:52:04.896Z,19.40
2019-03-27T22:54:13.266Z,16.70
2019-03-27T22:56:21.599Z,14.50
2019-03-27T22:58:29.840Z,14.37
2019-03-27T23:00:48.067Z,14.73
2019-03-27T23:02:56.490Z,13.97
2019-03-27T23:05:04.951Z,13.13
2019-03-27T23:07:13.209Z,15.83
2019-03-27T23:09:21.591Z,14.83
2019-03-27T23:11:29.873Z,14.97
2019-03-27T23:13:39.022Z,14.93
2019-03-27T23:15:47.262Z,13.73
2019-03-27T23:17:55.547Z,15.07
2019-03-27T23:20:03.925Z,13.77
2019-03-27T23:22:12.176Z,16.57
2019-03-27T23:24:20.396Z,13.83
2019-03-27T23:26:28.695Z,14.57
2019-03-27T23:28:37.090Z,13.43
2019-03-27T23:30:45.353Z,14.80
2019-03-27T23:32:53.657Z,13.87
2019-03-27T23:35:01.917Z,13.60
2019-03-27T23:37:10.177Z,14.00
2019-03-27T23:39:18.505Z,15.47
2019-03-27T23:41:26.713Z,13.83
2019-03-27T23:43:34.914Z,13.43
2019-03-27T23:45:43.244Z,13.90
2019-03-27T23:47:51.533Z,13.43
2019-03-27T23:49:59.723Z,13.40
2019-03-27T23:52:08.071Z,12.83
2019-03-27T23:54:16.288Z,13.00
2019-03-27T23:56:24.579Z,13.00
2019-03-27T23:58:32.849Z,13.50
